createdAt,value
2018-07-11T00:02:25.271Z,5.40
2018-07-11T00:04:53.665Z,4.90
2018-07-11T00:07:22.214Z,4.37
2018-07-11T00:09:50.612Z,4.10
2018-07-11T00:12:19.044Z,4.47
2018-07-11T00:14:47.424Z,4.37
2018-07-11T00:17:16.180Z,4.90
2018-07-11T00:19:45.469Z,4.50
2018-07-11T00:22:13.856Z,3.20
2018-07-11T00:24:42.220Z,4.50
2018-07-11T00:27:11.140Z,7.33
2018-07-11T00:29:39.550Z,3.00
2018-07-11T00:32:07.948Z,5.80
2018-07-11T00:34:36.327Z,4.87
2018-07-11T00:37:04.763Z,4.00
2018-07-11T00:39:33.308Z,4.10
2018-07-11T00:42:01.727Z,4.33
2018-07-11T00:44:30.141Z,3.70
2018-07-11T00:46:58.634Z,5.07
2018-07-11T00:49:27.620Z,5.40
2018-07-11T00:51:56.781Z,3.00
2018-07-11T00:54:25.438Z,2.50
2018-07-11T00:56:54.039Z,2.30
2018-07-11T00:59:25.481Z,6.33
2018-07-11T01:01:54.212Z,3.77
2018-07-11T01:04:22.618Z,3.20
2018-07-11T01:07:13.288Z,5.97
2018-07-11T01:09:45.406Z,3.20
2018-07-11T01:12:13.854Z,4.63
2018-07-11T01:14:42.276Z,2.50
2018-07-11T01:17:16.188Z,2.40
2018-07-11T01:19:45.486Z,4.00
2018-07-11T01:22:13.860Z,4.23
2018-07-11T01:24:42.796Z,4.77
2018-07-11T01:27:11.139Z,3.67
2018-07-11T01:29:39.524Z,3.83
2018-07-11T01:32:07.920Z,3.57
2018-07-11T01:34:36.888Z,4.53
2018-07-11T01:37:05.510Z,2.40
2018-07-11T01:39:33.982Z,3.57
2018-07-11T01:42:02.370Z,4.10
2018-07-11T01:44:30.715Z,3.90
2018-07-11T01:46:59.160Z,3.73
2018-07-11T01:49:27.607Z,5.17
2018-07-11T01:52:07.185Z,3.40
2018-07-11T01:54:35.622Z,5.33
2018-07-11T01:57:04.040Z,4.23
2018-07-11T01:59:35.483Z,5.27
2018-07-11T02:02:04.387Z,4.43
2018-07-11T02:04:35.804Z,4.13
2018-07-11T02:07:07.272Z,3.57
2018-07-11T02:09:35.844Z,3.67
2018-07-11T02:12:04.646Z,5.07
2018-07-11T02:14:33.217Z,5.03
2018-07-11T02:17:01.733Z,6.20
2018-07-11T02:19:30.170Z,4.53
2018-07-11T02:21:59.101Z,6.33
2018-07-11T02:24:27.494Z,3.50
2018-07-11T02:26:56.088Z,5.57
2018-07-11T02:29:25.542Z,5.00
2018-07-11T02:31:53.956Z,4.20
2018-07-11T02:34:27.800Z,3.83
2018-07-11T02:36:56.262Z,4.63
2018-07-11T02:39:24.602Z,4.00
2018-07-11T02:41:53.176Z,5.20
2018-07-11T02:44:22.044Z,5.87
2018-07-11T02:46:55.727Z,6.87
2018-07-11T02:49:23.868Z,6.70
2018-07-11T02:51:52.538Z,7.80
2018-07-11T02:54:21.404Z,4.60
2018-07-11T02:56:49.774Z,5.63
2018-07-11T02:59:18.182Z,4.73
2018-07-11T03:01:46.574Z,5.97
2018-07-11T03:04:14.990Z,3.37
2018-07-11T03:06:43.079Z,3.57
2018-07-11T03:09:11.435Z,5.23
2018-07-11T03:11:39.708Z,2.23
2018-07-11T03:14:08.097Z,6.10
2018-07-11T03:16:36.472Z,2.90
2018-07-11T03:19:04.967Z,6.87
2018-07-11T03:21:33.383Z,4.80
2018-07-11T03:24:01.770Z,4.03
2018-07-11T03:26:30.255Z,5.03
2018-07-11T03:28:58.659Z,5.37
2018-07-11T03:31:27.139Z,6.53
2018-07-11T03:33:55.651Z,6.60
2018-07-11T03:36:24.637Z,6.57
2018-07-11T03:38:53.013Z,6.30
2018-07-11T03:41:21.364Z,6.30
2018-07-11T03:43:49.849Z,5.27
2018-07-11T03:46:18.284Z,11.10
2018-07-11T03:48:46.821Z,6.40
2018-07-11T03:51:15.197Z,7.10
2018-07-11T03:53:43.614Z,9.17
2018-07-11T03:56:11.923Z,11.87
2018-07-11T03:58:40.296Z,7.43
2018-07-11T04:01:08.701Z,6.93
2018-07-11T04:03:37.168Z,14.27
2018-07-11T04:06:05.568Z,7.00
2018-07-11T04:08:33.947Z,6.30
2018-07-11T04:11:02.299Z,5.20
2018-07-11T04:13:30.651Z,3.00
2018-07-11T04:15:58.994Z,4.77
2018-07-11T04:18:31.035Z,3.53
2018-07-11T04:21:00.871Z,3.40
2018-07-11T04:23:29.111Z,6.13
2018-07-11T04:25:57.295Z,6.17
2018-07-11T04:28:27.583Z,8.77
2018-07-11T04:30:56.087Z,6.40
2018-07-11T04:33:24.694Z,12.20
2018-07-11T04:35:53.949Z,7.17
2018-07-11T04:38:22.480Z,6.87
2018-07-11T04:40:51.225Z,8.87
2018-07-11T04:43:20.039Z,11.67
2018-07-11T04:45:48.701Z,11.87
2018-07-11T04:48:19.241Z,10.03
2018-07-11T04:50:48.962Z,10.53
2018-07-11T04:53:23.325Z,9.63
2018-07-11T04:55:53.119Z,14.47
2018-07-11T04:58:21.471Z,14.83
2018-07-11T05:00:50.383Z,9.73
2018-07-11T05:03:18.771Z,9.77
2018-07-11T05:05:47.117Z,8.80
2018-07-11T05:08:15.550Z,10.93
2018-07-11T05:10:43.896Z,9.57
2018-07-11T05:13:12.329Z,11.90
2018-07-11T05:15:40.667Z,10.87
2018-07-11T05:18:09.047Z,10.13
2018-07-11T05:20:37.591Z,9.70
2018-07-11T05:23:05.984Z,10.63
2018-07-11T05:25:34.370Z,9.17
2018-07-11T05:28:02.884Z,11.57
2018-07-11T05:30:32.333Z,10.23
2018-07-11T05:33:00.725Z,14.93
2018-07-11T05:35:29.093Z,10.47
2018-07-11T05:37:57.607Z,11.93
2018-07-11T05:40:25.959Z,8.00
2018-07-11T05:42:54.487Z,10.90
2018-07-11T05:45:22.896Z,15.17
2018-07-11T05:47:51.239Z,16.07
2018-07-11T05:50:20.199Z,15.87
2018-07-11T05:52:48.537Z,12.80
2018-07-11T05:55:16.889Z,17.03
2018-07-11T05:57:45.294Z,16.03
2018-07-11T06:00:13.724Z,10.80
2018-07-11T06:02:42.240Z,8.93
2018-07-11T06:05:10.308Z,11.93
2018-07-11T06:07:38.819Z,9.37
2018-07-11T06:10:07.205Z,11.43
2018-07-11T06:12:35.560Z,9.53
2018-07-11T06:15:03.925Z,7.17
2018-07-11T06:17:32.463Z,10.80
2018-07-11T06:20:01.529Z,9.43
2018-07-11T06:22:29.979Z,7.73
2018-07-11T06:24:58.383Z,7.70
2018-07-11T06:27:26.723Z,9.07
2018-07-11T06:29:55.109Z,10.73
2018-07-11T06:32:23.466Z,10.73
2018-07-11T06:34:51.835Z,8.87
2018-07-11T06:37:20.270Z,8.33
2018-07-11T06:39:48.599Z,6.00
2018-07-11T06:42:17.611Z,7.80
2018-07-11T06:44:45.960Z,6.00
2018-07-11T06:47:15.505Z,5.60
2018-07-11T06:49:45.592Z,7.00
2018-07-11T06:52:14.253Z,6.47
2018-07-11T06:54:42.627Z,5.43
2018-07-11T06:57:11.019Z,7.20
2018-07-11T06:59:40.242Z,6.87
2018-07-11T07:02:08.613Z,7.37
2018-07-11T07:04:36.941Z,8.10
2018-07-11T07:07:05.382Z,6.43
2018-07-11T07:09:33.688Z,7.03
2018-07-11T07:12:02.189Z,7.20
2018-07-11T07:14:30.513Z,6.43
2018-07-11T07:16:58.867Z,6.27
2018-07-11T07:19:27.369Z,6.50
2018-07-11T07:21:55.799Z,6.37
2018-07-11T07:24:24.222Z,5.07
2018-07-11T07:26:52.692Z,4.50
2018-07-11T07:29:21.041Z,3.47
2018-07-11T07:31:49.478Z,3.50
2018-07-11T07:34:18.495Z,4.90
2018-07-11T07:36:46.859Z,7.87
2018-07-11T07:39:15.191Z,4.43
2018-07-11T07:41:43.573Z,3.37
2018-07-11T07:44:13.287Z,2.97
2018-07-11T07:46:45.935Z,2.33
2018-07-11T07:49:14.395Z,3.07
2018-07-11T07:51:42.740Z,3.70
2018-07-11T07:54:11.135Z,2.40
2018-07-11T07:56:39.601Z,2.97
2018-07-11T07:59:08.006Z,4.40
2018-07-11T08:01:36.828Z,3.77
2018-07-11T08:04:05.277Z,3.10
2018-07-11T08:06:33.719Z,4.00
2018-07-11T08:09:02.180Z,2.73
2018-07-11T08:11:30.642Z,4.27
2018-07-11T08:13:59.096Z,4.43
2018-07-11T08:16:27.475Z,5.80
2018-07-11T08:18:55.851Z,4.50
2018-07-11T08:21:24.256Z,4.93
2018-07-11T08:24:04.259Z,3.47
2018-07-11T08:26:44.007Z,2.80
2018-07-11T08:31:28.983Z,2.40
2018-07-11T08:34:15.465Z,4.63
2018-07-11T08:38:58.606Z,3.17
2018-07-11T08:41:38.110Z,3.83
2018-07-11T08:44:16.866Z,2.73
2018-07-11T08:47:02.477Z,2.93
2018-07-11T08:49:42.084Z,4.23
2018-07-11T08:54:54.438Z,2.83
2018-07-11T08:59:41.479Z,2.80
2018-07-11T09:12:13.907Z,2.97
2018-07-11T09:15:55.007Z,2.37
2018-07-11T09:21:04.958Z,2.30
2018-07-11T09:23:46.297Z,6.77
2018-07-11T09:26:15.356Z,2.10
2018-07-11T09:28:43.451Z,4.47
2018-07-11T09:31:11.890Z,2.27
2018-07-11T09:33:40.992Z,6.07
2018-07-11T09:36:09.372Z,4.33
2018-07-11T09:38:37.785Z,3.37
2018-07-11T09:41:06.241Z,3.50
2018-07-11T09:43:34.699Z,3.40
2018-07-11T09:46:03.269Z,3.67
2018-07-11T09:48:31.764Z,3.30
2018-07-11T09:51:00.190Z,3.07
2018-07-11T09:53:28.672Z,3.20
2018-07-11T09:55:57.128Z,2.90
2018-07-11T09:58:25.558Z,2.60
2018-07-11T10:00:59.314Z,1.63
2018-07-11T10:03:27.902Z,3.43
2018-07-11T10:05:56.404Z,1.50
2018-07-11T10:08:24.802Z,2.80
2018-07-11T10:10:53.250Z,2.17
2018-07-11T10:13:21.486Z,2.07
2018-07-11T10:15:49.868Z,1.50
2018-07-11T10:18:18.720Z,1.93
2018-07-11T10:20:47.762Z,2.03
2018-07-11T10:23:16.208Z,1.80
2018-07-11T10:25:45.198Z,4.50
2018-07-11T10:28:15.471Z,1.40
2018-07-11T10:30:43.827Z,1.53
2018-07-11T10:33:13.012Z,1.60
2018-07-11T10:35:41.892Z,4.10
2018-07-11T10:38:11.085Z,1.40
2018-07-11T10:40:39.544Z,1.07
2018-07-11T10:43:08.006Z,1.83
2018-07-11T10:45:36.100Z,1.23
2018-07-11T10:48:04.452Z,1.73
2018-07-11T10:50:32.499Z,2.93
2018-07-11T10:53:00.936Z,1.40
2018-07-11T10:55:29.334Z,2.73
2018-07-11T10:57:57.794Z,2.00
2018-07-11T11:00:36.664Z,0.80
2018-07-11T11:02:58.280Z,1.20
2018-07-11T11:05:26.656Z,2.50
2018-07-11T11:07:55.317Z,1.47
2018-07-11T11:10:23.708Z,4.30
2018-07-11T11:12:52.131Z,1.13
2018-07-11T11:15:20.590Z,1.40
2018-07-11T11:17:48.912Z,0.97
2018-07-11T11:20:17.277Z,3.30
2018-07-11T11:22:45.674Z,1.13
2018-07-11T11:25:14.074Z,1.33
2018-07-11T11:27:42.477Z,1.27
2018-07-11T11:30:10.852Z,1.33
2018-07-11T11:32:39.830Z,1.00
2018-07-11T11:35:08.264Z,1.47
2018-07-11T11:37:36.509Z,1.70
2018-07-11T11:40:04.952Z,1.07
2018-07-11T11:42:33.670Z,1.20
2018-07-11T11:45:01.928Z,2.83
2018-07-11T11:47:30.304Z,0.70
2018-07-11T11:49:58.668Z,3.70
2018-07-11T11:52:27.096Z,2.60
2018-07-11T11:54:55.459Z,0.73
2018-07-11T11:57:23.897Z,0.83
2018-07-11T11:59:52.313Z,0.70
2018-07-11T12:02:21.099Z,0.80
2018-07-11T12:04:49.508Z,0.67
2018-07-11T12:07:17.900Z,0.80
2018-07-11T12:09:46.257Z,1.20
2018-07-11T12:12:14.605Z,1.70
2018-07-11T12:14:42.959Z,0.77
2018-07-11T12:17:11.485Z,0.60
2018-07-11T12:19:39.971Z,0.80
2018-07-11T12:22:08.295Z,1.10
2018-07-11T12:24:36.747Z,1.10
2018-07-11T12:27:05.399Z,0.90
2018-07-11T12:29:33.807Z,1.10
2018-07-11T12:32:02.165Z,1.03
2018-07-11T12:34:30.572Z,0.93
2018-07-11T12:36:59.004Z,1.60
2018-07-11T12:39:27.594Z,0.87
2018-07-11T12:41:56.651Z,0.70
2018-07-11T12:44:25.075Z,0.80
2018-07-11T12:46:53.591Z,1.93
2018-07-11T12:49:21.996Z,1.00
2018-07-11T12:51:50.359Z,0.93
2018-07-11T12:54:18.747Z,0.63
2018-07-11T12:56:47.199Z,1.30
2018-07-11T12:59:16.166Z,0.60
2018-07-11T13:01:44.947Z,1.67
2018-07-11T13:04:13.320Z,2.30
2018-07-11T13:06:41.765Z,0.77
2018-07-11T13:09:10.102Z,0.70
2018-07-11T13:11:38.690Z,0.97
2018-07-11T13:14:07.188Z,0.80
2018-07-11T13:16:35.555Z,0.60
2018-07-11T13:19:03.945Z,0.60
2018-07-11T13:21:32.305Z,1.03
2018-07-11T13:24:00.738Z,2.17
2018-07-11T13:26:29.147Z,1.10
2018-07-11T13:28:57.565Z,1.00
2018-07-11T13:31:25.987Z,0.70
2018-07-11T13:33:54.515Z,1.40
2018-07-11T13:36:22.883Z,0.67
2018-07-11T13:38:51.383Z,1.37
2018-07-11T13:41:19.885Z,1.90
2018-07-11T13:43:47.962Z,0.90
2018-07-11T13:46:16.265Z,2.30
2018-07-11T13:48:44.623Z,0.60
2018-07-11T13:51:13.062Z,0.80
2018-07-11T13:53:41.467Z,0.53
2018-07-11T13:56:09.543Z,1.10
2018-07-11T13:58:45.042Z,1.63
2018-07-11T14:01:13.433Z,0.57
2018-07-11T14:03:41.932Z,2.10
2018-07-11T14:06:10.461Z,1.07
2018-07-11T14:08:38.839Z,1.20
2018-07-11T14:11:07.343Z,0.80
2018-07-11T14:13:35.795Z,3.17
2018-07-11T14:16:04.170Z,0.60
2018-07-11T14:18:32.549Z,1.10
2018-07-11T14:21:00.945Z,1.03
2018-07-11T14:23:38.962Z,0.67
2018-07-11T14:26:08.159Z,1.50
2018-07-11T14:28:38.948Z,0.90
2018-07-11T14:31:07.344Z,0.60
2018-07-11T14:33:35.815Z,1.30
2018-07-11T14:36:03.863Z,0.87
2018-07-11T14:38:33.105Z,0.90
2018-07-11T14:41:02.641Z,1.37
2018-07-11T14:43:31.093Z,1.20
2018-07-11T14:45:59.640Z,1.17
2018-07-11T14:48:29.925Z,1.20
2018-07-11T14:50:59.776Z,4.20
2018-07-11T14:53:28.201Z,1.03
2018-07-11T14:55:56.577Z,0.80
2018-07-11T14:58:25.559Z,2.60
2018-07-11T15:00:53.976Z,1.40
2018-07-11T15:03:22.410Z,1.23
2018-07-11T15:05:50.776Z,2.50
2018-07-11T15:08:19.320Z,1.30
2018-07-11T15:10:47.632Z,1.20
2018-07-11T15:13:15.892Z,1.47
2018-07-11T15:15:44.332Z,1.43
2018-07-11T15:18:12.756Z,2.10
2018-07-11T15:20:41.234Z,3.90
2018-07-11T15:23:09.643Z,1.20
2018-07-11T15:25:38.115Z,1.43
2018-07-11T15:28:06.642Z,1.60
2018-07-11T15:30:35.105Z,2.70
2018-07-11T15:33:03.540Z,10.07
2018-07-11T15:35:32.036Z,1.97
2018-07-11T15:38:00.123Z,1.27
2018-07-11T15:40:29.012Z,0.90
2018-07-11T15:42:57.430Z,2.73
2018-07-11T15:45:26.043Z,1.20
2018-07-11T15:47:54.940Z,2.60
2018-07-11T15:50:23.650Z,1.10
2018-07-11T15:52:52.599Z,1.30
2018-07-11T15:55:21.038Z,1.70
2018-07-11T15:57:51.272Z,1.20
2018-07-11T16:00:22.546Z,2.30
2018-07-11T16:02:50.940Z,1.43
2018-07-11T16:05:20.744Z,1.47
2018-07-11T16:07:51.158Z,1.90
2018-07-11T16:10:25.244Z,3.30
2018-07-11T16:12:53.664Z,1.10
2018-07-11T16:15:22.081Z,2.53
2018-07-11T16:17:57.190Z,2.97
2018-07-11T16:20:25.576Z,3.80
2018-07-11T16:22:54.017Z,1.07
2018-07-11T16:25:22.410Z,1.07
2018-07-11T16:27:51.000Z,1.20
2018-07-11T16:30:19.086Z,1.27
2018-07-11T16:32:47.482Z,2.43
2018-07-11T16:35:15.528Z,1.40
2018-07-11T16:37:43.896Z,3.83
2018-07-11T16:40:12.332Z,1.10
2018-07-11T16:42:43.900Z,3.23
2018-07-11T16:45:12.274Z,1.87
2018-07-11T16:47:40.706Z,2.67
2018-07-11T16:50:09.180Z,1.90
2018-07-11T16:52:37.586Z,1.27
2018-07-11T16:55:06.010Z,6.40
2018-07-11T16:57:47.125Z,1.83
2018-07-11T17:00:15.944Z,2.17
2018-07-11T17:02:46.101Z,5.60
2018-07-11T17:05:19.150Z,3.50
2018-07-11T17:07:50.898Z,1.43
2018-07-11T17:10:21.030Z,1.80
2018-07-11T17:12:56.997Z,3.73
2018-07-11T17:15:27.996Z,3.10
2018-07-11T17:17:57.687Z,1.37
2018-07-11T17:20:26.187Z,1.20
2018-07-11T17:22:58.307Z,3.07
2018-07-11T17:25:30.080Z,1.73
2018-07-11T17:28:02.968Z,2.27
2018-07-11T17:30:37.382Z,2.93
2018-07-11T17:33:07.325Z,1.77
2018-07-11T17:35:36.480Z,2.13
2018-07-11T17:38:07.267Z,1.40
2018-07-11T17:40:37.060Z,2.90
2018-07-11T17:43:07.219Z,3.50
2018-07-11T17:45:36.519Z,1.87
2018-07-11T17:48:06.322Z,2.13
2018-07-11T17:50:35.127Z,3.70
2018-07-11T17:53:17.128Z,1.57
2018-07-11T17:56:07.262Z,1.77
2018-07-11T17:58:55.388Z,1.93
2018-07-11T18:01:41.357Z,1.30
2018-07-11T18:04:16.156Z,3.50
2018-07-11T18:07:00.347Z,1.63
2018-07-11T18:09:37.849Z,3.73
2018-07-11T18:12:15.347Z,1.77
2018-07-11T18:15:23.693Z,3.13
2018-07-11T18:18:36.487Z,1.10
2018-07-11T18:21:26.239Z,1.63
2018-07-11T18:26:07.264Z,1.30
2018-07-11T18:28:47.138Z,3.53
2018-07-11T18:31:40.517Z,1.10
2018-07-11T18:35:21.126Z,1.63
2018-07-11T18:37:57.774Z,1.40
2018-07-11T18:40:32.637Z,1.37
2018-07-11T18:43:17.393Z,1.30
2018-07-11T18:48:00.553Z,1.60
2018-07-11T18:50:43.451Z,1.40
2018-07-11T18:53:25.488Z,1.70
2018-07-11T18:56:05.044Z,2.63
2018-07-11T18:58:44.986Z,1.37
2018-07-11T19:01:19.769Z,1.60
2018-07-11T19:06:03.448Z,2.00
2018-07-11T19:08:40.937Z,2.60
2018-07-11T19:11:17.208Z,1.60
2018-07-11T19:13:47.572Z,2.10
2018-07-11T19:16:18.269Z,2.40
2018-07-11T19:19:00.521Z,2.50
2018-07-11T19:23:41.877Z,1.60
2018-07-11T19:26:20.816Z,2.40
2018-07-11T19:28:54.296Z,2.03
2018-07-11T19:31:32.147Z,2.03
2018-07-11T19:34:14.419Z,1.70
2018-07-11T19:36:51.511Z,2.50
2018-07-11T19:39:33.059Z,1.80
2018-07-11T19:44:21.215Z,1.83
2018-07-11T19:51:04.766Z,2.50
2018-07-11T19:53:44.109Z,2.77
2018-07-11T19:56:20.177Z,2.63
2018-07-11T19:58:49.089Z,2.30
2018-07-11T20:01:17.638Z,2.43
2018-07-11T20:03:46.121Z,1.90
2018-07-11T20:06:14.572Z,3.33
2018-07-11T20:08:43.368Z,2.37
2018-07-11T20:11:11.934Z,2.73
2018-07-11T20:13:42.325Z,2.20
2018-07-11T20:16:11.761Z,2.97
2018-07-11T20:18:40.096Z,3.53
2018-07-11T20:21:08.595Z,3.70
2018-07-11T20:23:37.092Z,3.63
2018-07-11T20:26:05.875Z,3.60
2018-07-11T20:28:34.363Z,5.20
2018-07-11T20:31:02.827Z,3.83
2018-07-11T20:33:31.370Z,3.50
2018-07-11T20:35:59.853Z,4.93
2018-07-11T20:38:28.239Z,3.60
2018-07-11T20:40:56.750Z,3.77
2018-07-11T20:43:25.487Z,3.57
2018-07-11T20:45:53.897Z,3.60
2018-07-11T20:48:22.623Z,3.90
2018-07-11T20:50:51.035Z,4.10
2018-07-11T20:53:19.482Z,4.43
2018-07-11T20:55:47.721Z,4.30
2018-07-11T20:58:27.272Z,4.50
2018-07-11T21:01:06.943Z,3.73
2018-07-11T21:03:47.371Z,3.37
2018-07-11T21:08:36.084Z,4.37
2018-07-11T21:11:15.249Z,3.67
2018-07-11T21:14:01.152Z,4.27
2018-07-11T21:16:44.703Z,4.07
2018-07-11T21:19:13.126Z,4.80
2018-07-11T21:21:42.440Z,4.00
2018-07-11T21:24:11.836Z,3.67
2018-07-11T21:26:40.308Z,4.27
2018-07-11T21:29:09.106Z,4.43
2018-07-11T21:31:37.504Z,4.43
2018-07-11T21:34:05.942Z,4.40
2018-07-11T21:36:34.325Z,3.50
2018-07-11T21:39:02.861Z,3.43
2018-07-11T21:41:31.259Z,4.77
2018-07-11T21:43:59.714Z,3.87
2018-07-11T21:46:28.120Z,4.70
2018-07-11T21:48:56.494Z,5.20
2018-07-11T21:51:24.933Z,4.53
2018-07-11T21:53:53.321Z,5.10
2018-07-11T21:56:21.688Z,5.10
2018-07-11T21:58:50.113Z,4.43
2018-07-11T22:01:18.511Z,4.30
2018-07-11T22:03:46.604Z,4.37
2018-07-11T22:06:15.052Z,4.93
2018-07-11T22:08:43.420Z,4.87
2018-07-11T22:11:11.863Z,4.30
2018-07-11T22:13:40.214Z,4.40
2018-07-11T22:16:09.288Z,5.63
2018-07-11T22:18:40.512Z,5.77
2018-07-11T22:21:08.832Z,4.57
2018-07-11T22:23:36.216Z,6.17
2018-07-11T22:26:03.564Z,4.27
2018-07-11T22:28:30.821Z,5.07
2018-07-11T22:30:58.080Z,8.90
2018-07-11T22:33:25.362Z,4.23
2018-07-11T22:35:52.625Z,4.80
2018-07-11T22:38:19.895Z,2.90
2018-07-11T22:40:47.175Z,3.67
2018-07-11T22:43:14.434Z,4.70
2018-07-11T22:45:41.694Z,3.20
2018-07-11T22:48:08.988Z,2.73
2018-07-11T22:50:36.259Z,2.57
2018-07-11T22:53:03.545Z,3.10
2018-07-11T22:55:30.824Z,3.50
2018-07-11T22:57:58.089Z,4.97
2018-07-11T23:00:25.348Z,3.60
2018-07-11T23:02:52.624Z,3.17
2018-07-11T23:05:20.253Z,3.37
2018-07-11T23:07:47.528Z,5.13
2018-07-11T23:10:14.805Z,2.80
2018-07-11T23:12:42.133Z,5.17
2018-07-11T23:15:09.997Z,4.57
2018-07-11T23:17:37.276Z,3.90
2018-07-11T23:20:04.533Z,5.43
2018-07-11T23:22:31.808Z,4.17
2018-07-11T23:24:59.109Z,6.67
2018-07-11T23:27:26.369Z,3.43
2018-07-11T23:29:53.642Z,4.83
2018-07-11T23:32:20.920Z,5.40
2018-07-11T23:34:48.201Z,3.93
2018-07-11T23:37:15.722Z,4.50
2018-07-11T23:39:43.012Z,7.70
2018-07-11T23:42:11.090Z,6.27
2018-07-11T23:44:38.347Z,6.00
2018-07-11T23:47:05.640Z,6.13
2018-07-11T23:49:32.910Z,5.97
2018-07-11T23:52:00.174Z,6.30
2018-07-11T23:54:27.478Z,5.93
2018-07-11T23:56:54.753Z,5.03
2018-07-11T23:59:22.015Z,5.97
